Time;durP1;ratioP1;P1;durP2;ratioP2;P2;SDS_P1;SDS_P2;PMS_P1;PMS_P2;Temp;Humidity;BMP_temperature;BMP_pressure;BME280_temperature;BME280_humidity;BME280_pressure;Samples;Min_cycle;Max_cycle;Signal;HPM_P1;HPM_P2
2022/09/06 00:01:22;;;;;;;;;;;;;;;17.07;100.00;101771.81;5063230;28;19921;-81
2022/09/06 00:03:49;;;;;;;;;;;;;;;17.30;100.00;101780.00;5063922;28;19920;-81
2022/09/06 00:06:17;;;;;;;;;;;;;;;17.36;100.00;101775.59;5056583;28;19925;-81
2022/09/06 00:08:44;;;;;;;;;;;;;;;17.32;100.00;101775.25;5065053;28;19932;-81
2022/09/06 00:11:11;;;;;;;;;;;;;;;17.74;100.00;101779.88;5065233;28;20242;-79
2022/09/06 00:13:39;;;;;;;;;;;;;;;17.63;100.00;101771.53;5065372;28;19925;-81
2022/09/06 00:16:07;;;;;;;;;;;;;;;17.79;100.00;101767.44;5064312;28;19932;-81
2022/09/06 00:18:33;;;;;;;;;;;;;;;17.78;100.00;101762.28;5060253;28;19928;-79
2022/09/06 00:21:00;;;;;;;;;;;;;;;17.86;100.00;101767.34;5070438;28;20372;-79
2022/09/06 00:23:26;;;;;;;;;;;;;;;17.81;100.00;101762.63;5053783;28;19935;-81
2022/09/06 00:25:53;;;;;;;;;;;;;;;17.68;100.00;101770.03;5065591;28;19928;-80
2022/09/06 00:28:19;;;;;;;;;;;;;;;17.70;100.00;101768.78;5064993;28;19943;-79
2022/09/06 00:30:47;;;;;;;;;;;;;;;17.69;100.00;101763.63;5057265;28;20363;-78
2022/09/06 00:33:14;;;;;;;;;;;;;;;17.51;100.00;101770.66;5064521;28;20410;-80
2022/09/06 00:35:40;;;;;;;;;;;;;;;17.54;100.00;101766.69;5063580;28;19978;-81
2022/09/06 00:38:07;;;;;;;;;;;;;;;17.17;100.00;101758.69;5065127;28;19924;-81
2022/09/06 00:40:35;;;;;;;;;;;;;;;17.55;100.00;101771.88;5065764;28;19931;-79
2022/09/06 00:43:01;;;;;;;;;;;;;;;17.56;100.00;101759.25;5067878;28;19978;-80
2022/09/06 00:45:28;;;;;;;;;;;;;;;17.66;100.00;101761.38;5063959;28;19931;-80
2022/09/06 00:47:58;;;;;;;;;;;;;;;17.26;100.00;101760.03;5064321;28;19931;-80
2022/09/06 00:50:25;;;;;;;;;;;;;;;17.41;100.00;101762.31;5069258;28;19931;-80
2022/09/06 00:52:52;;;;;;;;;;;;;;;17.52;100.00;101763.41;5072069;28;20376;-83
2022/09/06 00:55:20;;;;;;;;;;;;;;;17.02;100.00;101759.06;5066470;28;19920;-79
2022/09/06 00:57:49;;;;;;;;;;;;;;;16.81;100.00;101757.63;5067059;28;19932;-80
2022/09/06 01:00:17;;;;;;;;;;;;;;;17.04;100.00;101762.34;5066531;28;19920;-78
2022/09/06 01:02:43;;;;;;;;;;;;;;;16.85;100.00;101763.38;5066428;28;19924;-81
2022/09/06 01:05:12;;;;;;;;;;;;;;;17.02;100.00;101764.44;5066257;28;20380;-81
2022/09/06 01:07:47;;;;;;;;;;;;;;;17.27;100.00;101767.03;5064491;28;19989;-81
2022/09/06 01:10:21;;;;;;;;;;;;;;;17.00;100.00;101765.69;5066841;28;19921;-81
2022/09/06 01:12:54;;;;;;;;;;;;;;;17.08;100.00;101760.84;5066699;28;19928;-78
2022/09/06 01:15:25;;;;;;;;;;;;;;;17.29;100.00;101767.63;5066639;28;20293;-80
2022/09/06 01:17:58;;;;;;;;;;;;;;;17.32;100.00;101761.00;5061662;28;19921;-80
2022/09/06 01:20:41;;;;;;;;;;;;;;;17.56;100.00;101765.44;5067261;28;19920;-80
2022/09/06 01:23:35;;;;;;;;;;;;;;;17.48;100.00;101762.25;5073599;28;19920;-81
2022/09/06 01:26:05;;;;;;;;;;;;;;;17.45;100.00;101763.50;5027970;28;19920;-79
2022/09/06 01:28:35;;;;;;;;;;;;;;;17.21;100.00;101764.44;5056991;28;19920;-82
2022/09/06 01:31:15;;;;;;;;;;;;;;;17.08;100.00;101768.09;5064029;28;19924;-81
2022/09/06 01:33:46;;;;;;;;;;;;;;;17.29;100.00;101769.50;5066216;28;20269;-81
2022/09/06 01:36:14;;;;;;;;;;;;;;;17.24;100.00;101764.78;5066855;28;19943;-78
2022/09/06 01:38:41;;;;;;;;;;;;;;;17.03;100.00;101757.19;5066970;28;20316;-79
2022/09/06 01:41:07;;;;;;;;;;;;;;;17.23;100.00;101756.97;5068119;28;20335;-81
2022/09/06 01:43:38;;;;;;;;;;;;;;;16.91;100.00;101757.97;5056428;28;19921;-82
2022/09/06 01:46:08;;;;;;;;;;;;;;;17.10;100.00;101757.97;5068401;28;19924;-81
2022/09/06 01:48:41;;;;;;;;;;;;;;;17.31;100.00;101756.69;5066777;28;19920;-79
2022/09/06 01:51:12;;;;;;;;;;;;;;;16.91;100.00;101754.44;5066236;28;19924;-82
2022/09/06 01:53:56;;;;;;;;;;;;;;;16.97;100.00;101750.84;5064055;28;19931;-79
2022/09/06 01:56:30;;;;;;;;;;;;;;;16.83;100.00;101750.19;5064371;28;19931;-78
2022/09/06 01:59:15;;;;;;;;;;;;;;;17.08;100.00;101741.25;5067148;28;20412;-77
2022/09/06 02:01:45;;;;;;;;;;;;;;;16.95;100.00;101739.53;5193415;22;19928;-78
2022/09/06 02:04:16;;;;;;;;;;;;;;;16.79;100.00;101737.44;5070246;28;20342;-77
2022/09/06 02:06:45;;;;;;;;;;;;;;;17.07;100.00;101740.44;5065574;28;19920;-80
2022/09/06 02:09:14;;;;;;;;;;;;;;;17.04;100.00;101740.88;5064818;28;19920;-80
2022/09/06 02:11:43;;;;;;;;;;;;;;;16.58;100.00;101736.81;5069971;28;19981;-78
2022/09/06 02:14:14;;;;;;;;;;;;;;;16.57;100.00;101737.00;5065022;28;19932;-79
2022/09/06 02:16:42;;;;;;;;;;;;;;;16.74;100.00;101731.91;5065500;28;19920;-81
2022/09/06 02:19:12;;;;;;;;;;;;;;;16.83;100.00;101736.78;5065759;28;19986;-78
2022/09/06 02:21:42;;;;;;;;;;;;;;;16.88;100.00;101728.03;5067885;28;19990;-81
2022/09/06 02:24:10;;;;;;;;;;;;;;;16.98;100.00;101741.78;5069969;28;19924;-78
2022/09/06 02:26:37;;;;;;;;;;;;;;;17.08;100.00;101736.69;5061690;28;19991;-80
2022/09/06 02:29:04;;;;;;;;;;;;;;;17.11;100.00;101735.44;5067698;28;19921;-80
2022/09/06 02:31:35;;;;;;;;;;;;;;;17.06;100.00;101730.72;5066883;28;20007;-78
2022/09/06 02:34:02;;;;;;;;;;;;;;;16.89;100.00;101735.06;5064689;28;19924;-81
2022/09/06 02:36:30;;;;;;;;;;;;;;;17.15;100.00;101733.94;5066392;28;20303;-81
2022/09/06 02:38:57;;;;;;;;;;;;;;;17.01;100.00;101738.66;5060311;28;20316;-79
2022/09/06 02:41:24;;;;;;;;;;;;;;;17.24;100.00;101746.00;5063764;28;19920;-80
2022/09/06 02:43:51;;;;;;;;;;;;;;;17.20;100.00;101739.44;5061950;28;20372;-81
2022/09/06 02:46:17;;;;;;;;;;;;;;;17.20;100.00;101739.44;5062556;28;19932;-82
2022/09/06 02:48:45;;;;;;;;;;;;;;;17.34;100.00;101745.50;5060373;28;19947;-82
2022/09/06 02:51:12;;;;;;;;;;;;;;;17.22;100.00;101749.97;5061037;28;19962;-81
2022/09/06 02:53:38;;;;;;;;;;;;;;;17.27;100.00;101748.22;5070585;28;20358;-78
2022/09/06 02:56:05;;;;;;;;;;;;;;;17.35;100.00;101747.13;5065991;28;19939;-79
2022/09/06 02:58:32;;;;;;;;;;;;;;;17.36;100.00;101746.88;5064208;28;19943;-81
2022/09/06 03:00:58;;;;;;;;;;;;;;;17.37;100.00;101747.72;5063252;28;20345;-80
2022/09/06 03:03:26;;;;;;;;;;;;;;;17.40;100.00;101745.41;5069615;28;19921;-79
2022/09/06 03:05:54;;;;;;;;;;;;;;;17.44;100.00;101743.06;5061841;28;19928;-81
2022/09/06 03:08:21;;;;;;;;;;;;;;;17.24;100.00;101740.63;5066449;28;19920;-81
2022/09/06 03:10:49;;;;;;;;;;;;;;;17.39;100.00;101738.38;5063205;28;20327;-81
2022/09/06 03:13:15;;;;;;;;;;;;;;;17.27;100.00;101737.50;5063110;28;19920;-79
2022/09/06 03:15:42;;;;;;;;;;;;;;;17.35;100.00;101739.88;5061864;28;19921;-82
2022/09/06 03:18:08;;;;;;;;;;;;;;;17.33;100.00;101733.91;5071729;28;20414;-79
2022/09/06 03:20:35;;;;;;;;;;;;;;;16.74;100.00;101729.22;5066376;28;19931;-79
2022/09/06 03:23:03;;;;;;;;;;;;;;;16.60;100.00;101740.06;5057864;28;19921;-82
2022/09/06 03:25:29;;;;;;;;;;;;;;;16.81;100.00;101730.81;5063707;28;19928;-78
2022/09/06 03:27:56;;;;;;;;;;;;;;;17.03;100.00;101735.72;5065784;28;20368;-80
2022/09/06 03:30:22;;;;;;;;;;;;;;;16.92;100.00;101727.38;5063878;28;19920;-82
2022/09/06 03:32:49;;;;;;;;;;;;;;;17.08;100.00;101723.28;5062880;28;19924;-79
2022/09/06 03:35:15;;;;;;;;;;;;;;;17.21;100.00;101732.22;5063767;28;19921;-81
2022/09/06 03:37:42;;;;;;;;;;;;;;;17.21;100.00;101737.59;5061266;28;19921;-84
2022/09/06 03:40:11;;;;;;;;;;;;;;;17.14;100.00;101735.78;5065172;28;19928;-79
2022/09/06 03:42:37;;;;;;;;;;;;;;;16.94;100.00;101735.19;5054274;28;20373;-79
2022/09/06 03:45:04;;;;;;;;;;;;;;;16.98;100.00;101746.34;5057011;28;19920;-82
2022/09/06 03:47:31;;;;;;;;;;;;;;;16.96;100.00;101743.84;5064495;28;20015;-79
2022/09/06 03:49:57;;;;;;;;;;;;;;;16.83;100.00;101750.19;5063905;28;20398;-83
2022/09/06 03:52:24;;;;;;;;;;;;;;;17.05;100.00;101753.25;5065370;28;19928;-83
2022/09/06 03:54:50;;;;;;;;;;;;;;;16.94;100.00;101746.78;5065609;28;19924;-82
2022/09/06 03:57:18;;;;;;;;;;;;;;;16.85;100.00;101750.78;5060023;28;19928;-79
2022/09/06 03:59:45;;;;;;;;;;;;;;;16.76;100.00;101752.09;5063698;28;19931;-79
2022/09/06 04:02:11;;;;;;;;;;;;;;;16.84;100.00;101748.31;5060420;28;20046;-81
2022/09/06 04:04:38;;;;;;;;;;;;;;;16.97;100.00;101756.22;5062320;28;19925;-79
2022/09/06 04:07:04;;;;;;;;;;;;;;;16.87;100.00;101751.38;5057126;28;20308;-79
2022/09/06 04:09:31;;;;;;;;;;;;;;;16.87;100.00;101750.56;5064319;28;19921;-80
2022/09/06 04:11:58;;;;;;;;;;;;;;;16.87;100.00;101758.59;5063590;28;20175;-82
2022/09/06 04:14:25;;;;;;;;;;;;;;;17.29;100.00;101754.22;5063887;28;19921;-80
2022/09/06 04:16:52;;;;;;;;;;;;;;;17.35;100.00;101763.22;5064637;28;19920;-79
2022/09/06 04:19:18;;;;;;;;;;;;;;;17.39;100.00;101770.59;5067411;28;19924;-82
2022/09/06 04:21:45;;;;;;;;;;;;;;;17.49;100.00;101772.78;5066333;28;19920;-81
2022/09/06 04:24:11;;;;;;;;;;;;;;;17.31;100.00;101765.56;5065735;28;20429;-82
2022/09/06 04:26:39;;;;;;;;;;;;;;;17.17;100.00;101766.75;5063611;28;19932;-81
2022/09/06 04:29:05;;;;;;;;;;;;;;;17.41;100.00;101773.06;5067278;28;19921;-80
2022/09/06 04:31:33;;;;;;;;;;;;;;;17.34;100.00;101770.47;5068677;28;20272;-81
2022/09/06 04:34:00;;;;;;;;;;;;;;;17.50;100.00;101773.59;5067189;28;19921;-79
2022/09/06 04:36:26;;;;;;;;;;;;;;;17.42;100.00;101765.81;5067108;28;19921;-81
2022/09/06 04:38:54;;;;;;;;;;;;;;;17.30;100.00;101766.56;5066619;28;20371;-81
2022/09/06 04:41:20;;;;;;;;;;;;;;;17.22;100.00;101771.47;5061313;28;19921;-80
2022/09/06 04:43:47;;;;;;;;;;;;;;;17.41;100.00;101767.69;5065720;28;20292;-81
2022/09/06 04:46:17;;;;;;;;;;;;;;;17.47;100.00;101769.47;5065887;28;19931;-82
2022/09/06 04:48:45;;;;;;;;;;;;;;;17.13;100.00;101774.44;5067177;28;19924;-81
2022/09/06 04:51:12;;;;;;;;;;;;;;;17.19;100.00;101772.72;5064344;28;19935;-82
2022/09/06 04:53:38;;;;;;;;;;;;;;;17.31;100.00;101773.59;5069155;28;19921;-82
2022/09/06 04:56:05;;;;;;;;;;;;;;;17.70;100.00;101784.06;5067340;28;19936;-78
2022/09/06 04:58:31;;;;;;;;;;;;;;;17.82;100.00;101784.94;5067651;28;19921;-79
2022/09/06 05:00:58;;;;;;;;;;;;;;;17.48;100.00;101779.16;5065395;28;19927;-79
2022/09/06 05:03:24;;;;;;;;;;;;;;;17.68;100.00;101781.59;5075885;28;19932;-80
2022/09/06 05:05:52;;;;;;;;;;;;;;;17.87;100.00;101777.03;5057229;28;19990;-83
2022/09/06 05:08:19;;;;;;;;;;;;;;;17.75;100.00;101779.63;5060353;28;19924;-81
2022/09/06 05:10:45;;;;;;;;;;;;;;;17.86;100.00;101778.09;5068440;28;19932;-81
2022/09/06 05:13:12;;;;;;;;;;;;;;;17.91;100.00;101777.38;5068242;28;19928;-79
2022/09/06 05:15:38;;;;;;;;;;;;;;;17.88;100.00;101777.84;5067925;28;19932;-85
2022/09/06 05:18:05;;;;;;;;;;;;;;;18.04;100.00;101782.59;5066060;28;20315;-78
2022/09/06 05:20:32;;;;;;;;;;;;;;;18.03;100.00;101783.59;5068863;28;19921;-79
2022/09/06 05:23:00;;;;;;;;;;;;;;;17.93;100.00;101796.78;5059905;28;19932;-79
2022/09/06 05:25:26;;;;;;;;;;;;;;;17.73;100.00;101799.72;5065675;28;19978;-79
2022/09/06 05:27:53;;;;;;;;;;;;;;;18.01;100.00;101797.28;5067800;28;19931;-82
2022/09/06 05:30:20;;;;;;;;;;;;;;;17.70;100.00;101800.16;5066355;28;19920;-82
2022/09/06 05:32:46;;;;;;;;;;;;;;;17.84;100.00;101793.59;5066739;28;20039;-79
2022/09/06 05:35:13;;;;;;;;;;;;;;;18.01;100.00;101796.47;5059922;28;20430;-78
2022/09/06 05:37:39;;;;;;;;;;;;;;;18.17;100.00;101795.81;5068399;28;19935;-81
2022/09/06 05:40:08;;;;;;;;;;;;;;;18.21;100.00;101794.28;5068523;28;19989;-82
2022/09/06 05:42:34;;;;;;;;;;;;;;;18.39;100.00;101788.00;5065536;28;19932;-82
2022/09/06 05:45:01;;;;;;;;;;;;;;;18.25;100.00;101787.41;5061557;28;19987;-79
2022/09/06 05:47:29;;;;;;;;;;;;;;;18.33;100.00;101782.75;5057179;28;19920;-80
2022/09/06 05:49:56;;;;;;;;;;;;;;;18.49;100.00;101779.38;5067222;28;20367;-82
2022/09/06 05:52:23;;;;;;;;;;;;;;;18.35;100.00;101772.59;5064619;28;20275;-82
2022/09/06 05:54:49;;;;;;;;;;;;;;;18.51;100.00;101772.69;5069901;28;19926;-85
2022/09/06 05:57:17;;;;;;;;;;;;;;;18.47;100.00;101778.78;5064041;28;20334;-84
2022/09/06 05:59:43;;;;;;;;;;;;;;;18.44;100.00;101772.00;5065359;28;19928;-82
2022/09/06 06:02:10;;;;;;;;;;;;;;;18.73;100.00;101774.88;5068410;28;19928;-78
2022/09/06 06:04:36;;;;;;;;;;;;;;;18.61;100.00;101774.00;5063825;28;19953;-79
2022/09/06 06:07:03;;;;;;;;;;;;;;;18.56;100.00;101777.41;5065134;28;19929;-81
2022/09/06 06:09:29;;;;;;;;;;;;;;;18.81;100.00;101779.88;5062362;28;19936;-81
2022/09/06 06:11:56;;;;;;;;;;;;;;;18.75;100.00;101780.81;5065473;28;19920;-79
2022/09/06 06:14:24;;;;;;;;;;;;;;;19.02;100.00;101773.06;5065634;28;19925;-81
2022/09/06 06:16:51;;;;;;;;;;;;;;;18.90;100.00;101772.25;5058489;28;19927;-79
2022/09/06 06:19:17;;;;;;;;;;;;;;;19.21;100.00;101771.88;5067437;28;20364;-79
2022/09/06 06:21:44;;;;;;;;;;;;;;;18.86;100.00;101771.09;5064704;28;19986;-79
2022/09/06 06:24:10;;;;;;;;;;;;;;;18.46;100.00;101785.22;5059577;28;19979;-81
2022/09/06 06:26:37;;;;;;;;;;;;;;;18.77;100.00;101787.59;5066140;28;19927;-82
2022/09/06 06:29:06;;;;;;;;;;;;;;;19.02;100.00;101777.63;5067148;28;19928;-82
2022/09/06 06:31:35;;;;;;;;;;;;;;;19.69;100.00;101786.03;5064872;28;19921;-78
2022/09/06 06:34:02;;;;;;;;;;;;;;;20.01;100.00;101780.13;5063695;28;20408;-81
2022/09/06 06:36:30;;;;;;;;;;;;;;;19.98;100.00;101784.13;5070253;28;19935;-80
2022/09/06 06:38:57;;;;;;;;;;;;;;;20.36;100.00;101777.19;5070730;28;19947;-81
2022/09/06 06:41:25;;;;;;;;;;;;;;;20.07;100.00;101779.97;5066878;28;19928;-81
2022/09/06 06:43:52;;;;;;;;;;;;;;;20.58;100.00;101783.53;5068056;28;19924;-78
2022/09/06 06:46:20;;;;;;;;;;;;;;;21.36;100.00;101777.28;5063027;28;19920;-81
2022/09/06 06:48:48;;;;;;;;;;;;;;;20.83;100.00;101770.66;5065484;28;19924;-77
2022/09/06 06:51:16;;;;;;;;;;;;;;;21.21;100.00;101773.31;5066581;28;20353;-81
2022/09/06 06:53:43;;;;;;;;;;;;;;;21.34;100.00;101772.13;5065574;28;19974;-79
2022/09/06 06:56:17;;;;;;;;;;;;;;;21.50;100.00;101773.13;5064633;28;19993;-80
2022/09/06 06:58:44;;;;;;;;;;;;;;;21.20;100.00;101777.06;5061522;28;20242;-81
2022/09/06 07:01:11;;;;;;;;;;;;;;;21.65;100.00;101775.19;5060028;28;19956;-79
2022/09/06 07:03:37;;;;;;;;;;;;;;;21.41;100.00;101780.06;5063643;28;19931;-78
2022/09/06 07:06:06;;;;;;;;;;;;;;;22.26;100.00;101783.06;5066376;28;19925;-81
2022/09/06 07:08:33;;;;;;;;;;;;;;;22.47;100.00;101784.84;5056758;28;19931;-81
2022/09/06 07:10:59;;;;;;;;;;;;;;;22.30;100.00;101782.31;5065301;28;19998;-81
2022/09/06 07:13:26;;;;;;;;;;;;;;;22.27;100.00;101777.41;5066479;28;20385;-79
2022/09/06 07:15:52;;;;;;;;;;;;;;;22.36;100.00;101789.41;5066212;28;19920;-79
2022/09/06 07:18:19;;;;;;;;;;;;;;;22.82;100.00;101789.69;5055081;28;19925;-80
2022/09/06 07:20:45;;;;;;;;;;;;;;;22.70;100.00;101789.09;5065351;28;19921;-81
2022/09/06 07:23:13;;;;;;;;;;;;;;;22.58;100.00;101783.06;5057188;28;19932;-81
2022/09/06 07:25:40;;;;;;;;;;;;;;;22.84;100.00;101792.97;5063096;28;19932;-78
2022/09/06 07:28:06;;;;;;;;;;;;;;;23.00;100.00;101793.09;5065872;28;19931;-82
2022/09/06 07:30:35;;;;;;;;;;;;;;;22.90;100.00;101782.16;5065818;28;20015;-79
2022/09/06 07:33:04;;;;;;;;;;;;;;;23.38;100.00;101788.34;5063232;28;19920;-80
2022/09/06 07:35:30;;;;;;;;;;;;;;;23.81;100.00;101780.91;5064157;28;20015;-80
2022/09/06 07:37:58;;;;;;;;;;;;;;;23.23;100.00;101783.69;5059020;28;19931;-78
2022/09/06 07:40:27;;;;;;;;;;;;;;;22.94;100.00;101789.53;5054351;28;19921;-78
2022/09/06 07:42:56;;;;;;;;;;;;;;;23.47;100.00;101781.34;5060081;28;19944;-81
2022/09/06 07:45:22;;;;;;;;;;;;;;;23.54;100.00;101790.84;5056672;28;19928;-81
2022/09/06 07:47:53;;;;;;;;;;;;;;;23.27;100.00;101790.22;5065766;28;19924;-86
2022/09/06 07:50:20;;;;;;;;;;;;;;;23.44;89.43;101784.56;5065284;28;19964;-78
2022/09/06 07:52:46;;;;;;;;;;;;;;;23.31;88.64;101800.25;5062864;28;19920;-80
2022/09/06 07:55:13;;;;;;;;;;;;;;;23.65;87.21;101790.88;5065560;28;19931;-81
2022/09/06 07:57:41;;;;;;;;;;;;;;;23.81;92.89;101781.69;5063887;28;19924;-77
2022/09/06 08:00:09;;;;;;;;;;;;;;;24.10;86.45;101779.28;5062472;28;19931;-78
2022/09/06 08:02:35;;;;;;;;;;;;;;;24.01;81.38;101780.91;5057808;28;19960;-81
2022/09/06 08:05:02;;;;;;;;;;;;;;;24.00;82.29;101788.25;5065418;28;19985;-83
2022/09/06 08:07:28;;;;;;;;;;;;;;;24.49;90.16;101781.47;5063936;28;20015;-78
2022/09/06 08:09:55;;;;;;;;;;;;;;;24.45;78.08;101781.22;5061472;28;19921;-78
2022/09/06 08:12:22;;;;;;;;;;;;;;;23.93;83.12;101776.03;5063752;28;19920;-78
2022/09/06 08:14:50;;;;;;;;;;;;;;;24.56;100.00;101767.63;5060589;28;19991;-78
2022/09/06 08:17:17;;;;;;;;;;;;;;;24.84;87.62;101768.91;5062794;28;19920;-78
2022/09/06 08:19:43;;;;;;;;;;;;;;;24.90;98.05;101765.06;5064822;28;20273;-78
2022/09/06 08:22:10;;;;;;;;;;;;;;;24.59;94.36;101770.59;5065029;28;19928;-77
2022/09/06 08:24:37;;;;;;;;;;;;;;;24.53;85.56;101758.09;5061682;28;20450;-80
2022/09/06 08:27:06;;;;;;;;;;;;;;;24.74;89.70;101758.06;5061157;28;20273;-81
2022/09/06 08:29:33;;;;;;;;;;;;;;;24.78;71.98;101757.25;5060916;28;19924;-80
2022/09/06 08:32:01;;;;;;;;;;;;;;;24.74;76.95;101755.34;5062620;28;19932;-79
2022/09/06 08:34:27;;;;;;;;;;;;;;;24.89;83.97;101758.03;5059166;28;19921;-80
2022/09/06 08:36:54;;;;;;;;;;;;;;;25.05;83.86;101750.63;5062655;28;19932;-80
2022/09/06 08:39:20;;;;;;;;;;;;;;;25.56;90.06;101756.63;5066303;28;19924;-78
2022/09/06 08:41:48;;;;;;;;;;;;;;;25.92;82.98;101745.53;5060539;28;19928;-81
2022/09/06 08:44:17;;;;;;;;;;;;;;;26.04;69.93;101753.31;5062622;28;20384;-80
2022/09/06 08:46:48;;;;;;;;;;;;;;;25.96;61.46;101746.59;5064765;28;19928;-78
2022/09/06 08:49:16;;;;;;;;;;;;;;;25.99;64.37;101742.47;5063873;28;19927;-80
2022/09/06 08:51:57;;;;;;;;;;;;;;;25.87;59.02;101745.59;5056299;28;19924;-77
2022/09/06 08:54:29;;;;;;;;;;;;;;;26.21;57.27;101744.75;5061197;28;19921;-81
2022/09/06 08:57:25;;;;;;;;;;;;;;;26.75;58.19;101751.00;5060982;28;19932;-84
2022/09/06 09:00:02;;;;;;;;;;;;;;;25.94;53.56;101742.53;5059170;28;19921;-84
2022/09/06 09:02:41;;;;;;;;;;;;;;;26.73;54.79;101751.31;5061118;28;19932;-81
2022/09/06 09:05:13;;;;;;;;;;;;;;;26.27;56.42;101749.03;5070101;28;19936;-78
2022/09/06 09:07:43;;;;;;;;;;;;;;;25.98;50.68;101741.66;5067284;28;19924;-81
2022/09/06 09:10:16;;;;;;;;;;;;;;;26.55;53.74;101733.81;5065794;28;19927;-81
2022/09/06 09:12:44;;;;;;;;;;;;;;;26.77;49.34;101738.72;5066279;28;19928;-78
2022/09/06 09:15:12;;;;;;;;;;;;;;;26.76;48.67;101730.84;5066083;28;19924;-78
2022/09/06 09:17:39;;;;;;;;;;;;;;;27.00;50.97;101730.84;5067158;28;19924;-81
2022/09/06 09:20:07;;;;;;;;;;;;;;;26.88;53.27;101725.81;5061349;28;19932;-81
2022/09/06 09:22:53;;;;;;;;;;;;;;;27.43;47.71;101717.97;5059605;28;20246;-77
2022/09/06 09:25:21;;;;;;;;;;;;;;;27.47;46.46;101721.72;5059970;28;20535;-76
2022/09/06 09:27:56;;;;;;;;;;;;;;;27.42;46.87;101707.38;5064661;28;20441;-79
2022/09/06 09:30:23;;;;;;;;;;;;;;;27.32;47.10;101711.06;5068615;28;20411;-80
2022/09/06 09:32:50;;;;;;;;;;;;;;;27.49;46.16;101705.09;5057489;28;20019;-78
2022/09/06 09:35:31;;;;;;;;;;;;;;;27.07;44.08;101712.19;5060852;28;19924;-77
2022/09/06 09:38:03;;;;;;;;;;;;;;;26.89;46.02;101709.16;5062684;28;19921;-81
2022/09/06 09:40:33;;;;;;;;;;;;;;;26.57;44.90;101717.19;5064776;28;20356;-79
2022/09/06 09:43:11;;;;;;;;;;;;;;;28.08;46.16;101703.59;5067467;28;20280;-81
2022/09/06 09:45:38;;;;;;;;;;;;;;;27.32;44.77;101711.06;5061440;28;19924;-78
2022/09/06 09:48:20;;;;;;;;;;;;;;;27.14;46.33;101712.63;5062785;28;19921;-82
2022/09/06 09:50:47;;;;;;;;;;;;;;;27.13;44.88;101700.91;5061107;28;19925;-79
2022/09/06 09:53:16;;;;;;;;;;;;;;;27.50;43.92;101707.50;5062820;28;20013;-79
2022/09/06 09:55:44;;;;;;;;;;;;;;;27.91;41.23;101695.97;5066629;28;20265;-81
2022/09/06 09:58:19;;;;;;;;;;;;;;;28.59;42.03;101699.91;5070669;28;19924;-78
2022/09/06 10:00:45;;;;;;;;;;;;;;;28.30;43.55;101687.34;5066137;28;19947;-81
2022/09/06 10:03:13;;;;;;;;;;;;;;;28.20;41.92;101686.72;5066645;28;19982;-80
2022/09/06 10:05:40;;;;;;;;;;;;;;;28.14;53.17;101682.44;5064846;28;19951;-80
2022/09/06 10:08:11;;;;;;;;;;;;;;;28.34;45.18;101682.06;5061897;28;20349;-83
2022/09/06 10:10:41;;;;;;;;;;;;;;;28.14;46.90;101685.19;5064389;28;19924;-82
2022/09/06 10:13:29;;;;;;;;;;;;;;;28.91;45.18;101688.03;5067796;28;19920;-78
2022/09/06 10:15:57;;;;;;;;;;;;;;;27.74;44.29;101684.75;5065213;28;20026;-78
2022/09/06 10:18:29;;;;;;;;;;;;;;;27.55;48.65;101684.81;5067095;28;19931;-80
2022/09/06 10:20:59;;;;;;;;;;;;;;;28.61;50.54;101681.28;5061516;28;19921;-78
2022/09/06 10:23:31;;;;;;;;;;;;;;;29.28;46.50;101666.19;5065439;28;19968;-83
2022/09/06 10:26:03;;;;;;;;;;;;;;;28.53;40.91;101666.44;5065074;28;20365;-78
2022/09/06 10:28:31;;;;;;;;;;;;;;;29.40;40.88;101663.72;5064335;28;19921;-82
2022/09/06 10:31:24;;;;;;;;;;;;;;;30.29;41.63;101656.56;5068618;28;20268;-85
2022/09/06 10:34:00;;;;;;;;;;;;;;;29.28;41.07;101658.78;5063852;28;19921;-80
2022/09/06 10:36:36;;;;;;;;;;;;;;;28.87;42.12;101656.97;5066154;28;19928;-77
2022/09/06 10:39:06;;;;;;;;;;;;;;;28.95;43.98;101658.16;5060425;28;19921;-80
2022/09/06 10:41:41;;;;;;;;;;;;;;;29.09;44.74;101648.03;5060011;28;20309;-78
2022/09/06 10:44:26;;;;;;;;;;;;;;;29.96;46.39;101653.31;5065367;28;20398;-77
2022/09/06 10:47:14;;;;;;;;;;;;;;;29.59;41.36;101649.84;5066695;28;20356;-77
2022/09/06 10:49:41;;;;;;;;;;;;;;;29.68;44.65;101648.00;5054817;28;19925;-78
2022/09/06 10:52:17;;;;;;;;;;;;;;;29.37;41.76;101636.97;5063467;28;20001;-78
2022/09/06 10:54:46;;;;;;;;;;;;;;;29.34;44.29;101649.34;5059885;28;20003;-77
2022/09/06 10:57:16;;;;;;;;;;;;;;;28.83;39.26;101641.47;5060923;28;19983;-80
2022/09/06 10:59:50;;;;;;;;;;;;;;;30.75;39.40;101645.03;5059733;28;19924;-80
2022/09/06 11:02:26;;;;;;;;;;;;;;;29.56;42.48;101642.25;5060119;28;19920;-78
2022/09/06 11:04:53;;;;;;;;;;;;;;;29.41;40.68;101635.22;5064385;28;19977;-78
2022/09/06 11:07:24;;;;;;;;;;;;;;;29.02;43.56;101644.91;5067543;28;20453;-78
2022/09/06 11:09:55;;;;;;;;;;;;;;;29.70;47.00;101643.00;5072727;28;19974;-81
2022/09/06 11:12:36;;;;;;;;;;;;;;;30.06;42.33;101642.06;5063254;28;20357;-83
2022/09/06 11:15:05;;;;;;;;;;;;;;;29.70;41.60;101637.53;5063986;28;19928;-80
2022/09/06 11:17:34;;;;;;;;;;;;;;;29.85;40.92;101639.06;5068733;28;20007;-78
2022/09/06 11:20:05;;;;;;;;;;;;;;;29.71;40.85;101635.59;5065429;28;19924;-80
2022/09/06 11:22:49;;;;;;;;;;;;;;;30.24;38.89;101635.56;5060451;28;20011;-81
2022/09/06 11:25:36;;;;;;;;;;;;;;;30.04;43.79;101639.63;5061042;28;19928;-81
2022/09/06 11:28:07;;;;;;;;;;;;;;;30.02;41.01;101630.94;5061692;28;19955;-76
2022/09/06 11:30:34;;;;;;;;;;;;;;;30.48;39.80;101629.69;5066839;28;19921;-77
2022/09/06 11:33:07;;;;;;;;;;;;;;;30.69;41.96;101624.41;5062797;28;19994;-78
2022/09/06 11:35:34;;;;;;;;;;;;;;;31.79;35.98;101621.44;5060285;28;20364;-79
2022/09/06 11:38:03;;;;;;;;;;;;;;;31.11;38.13;101613.00;5070874;28;19993;-81
2022/09/06 11:40:35;;;;;;;;;;;;;;;30.78;42.28;101614.28;5065056;28;19924;-81
2022/09/06 11:43:11;;;;;;;;;;;;;;;31.48;38.34;101609.56;5057572;28;19985;-81
2022/09/06 11:45:42;;;;;;;;;;;;;;;31.95;39.48;101608.78;5061007;28;19978;-82
2022/09/06 11:48:32;;;;;;;;;;;;;;;31.44;38.59;101607.81;5061649;28;19954;-78
2022/09/06 11:51:05;;;;;;;;;;;;;;;30.45;38.97;101616.63;5062986;28;19986;-80
2022/09/06 11:53:33;;;;;;;;;;;;;;;29.18;39.81;101609.81;5068934;28;19998;-81
2022/09/06 11:56:24;;;;;;;;;;;;;;;29.37;42.01;101606.88;5065572;28;19921;-79
2022/09/06 11:58:55;;;;;;;;;;;;;;;29.65;42.56;101604.81;5062773;28;19928;-79
2022/09/06 12:01:36;;;;;;;;;;;;;;;31.09;41.01;101588.63;5068422;28;19924;-79
2022/09/06 12:04:04;;;;;;;;;;;;;;;30.85;40.04;101582.81;5067180;28;19921;-82
2022/09/06 12:06:33;;;;;;;;;;;;;;;30.55;40.63;101599.84;5064142;28;20258;-79
2022/09/06 12:09:00;;;;;;;;;;;;;;;30.42;38.71;101586.31;5056846;28;20007;-81
2022/09/06 12:11:28;;;;;;;;;;;;;;;30.83;41.02;101580.38;5062192;28;19986;-79
2022/09/06 12:14:02;;;;;;;;;;;;;;;30.35;38.20;101582.09;5063543;28;20376;-82
2022/09/06 12:16:47;;;;;;;;;;;;;;;30.78;40.09;101578.63;5063809;28;19920;-82
2022/09/06 12:19:28;;;;;;;;;;;;;;;30.09;42.56;101579.25;5062863;28;19993;-81
2022/09/06 12:21:55;;;;;;;;;;;;;;;31.08;42.35;101573.31;5052712;28;19920;-81
2022/09/06 12:24:40;;;;;;;;;;;;;;;30.92;41.16;101574.91;5059085;28;20331;-82
2022/09/06 12:27:14;;;;;;;;;;;;;;;31.15;41.84;101562.63;5061819;28;19924;-79
2022/09/06 12:29:48;;;;;;;;;;;;;;;30.28;44.55;101569.97;5060113;28;20353;-81
2022/09/06 12:32:19;;;;;;;;;;;;;;;30.72;42.40;101565.38;5066737;28;20002;-81
2022/09/06 12:34:46;;;;;;;;;;;;;;;30.05;42.93;101574.75;5061735;28;19982;-79
2022/09/06 12:37:12;;;;;;;;;;;;;;;30.63;42.06;101564.56;5060493;28;20423;-78
2022/09/06 12:39:39;;;;;;;;;;;;;;;30.51;43.50;101557.78;5066604;28;19928;-78
2022/09/06 12:42:07;;;;;;;;;;;;;;;30.74;42.88;101550.22;5063101;28;19920;-81